Pagrindinis puslapis
METAR-TAF:

METAR-TAF

Oro uostai :

Manado, Indonezija

platuma: 01-32N, ilguma: 124-55E, Aukštis: 80 m

Dabartinis oras

Ataskaita buvo paskelbta 2 valandos ir 19 minutes, ne 16:00 UTC
Vėjas 1 kt nuo kintamojo kryptimis
Temperatūra 25°C
Drėgmė 94%
Slėgis 1010 hPa
Matomumas: 9000 m
Išsisklaidę debesys ne aukštis 2100 ft

METAR: WAMM 301600Z VRB01KT 9000 SCT021 25/24 Q1010 RERA NOSIG

Laikas: 01:19 (18:19 UTC)

Prognozė

Ataskaita buvo paskelbta 1 valandą ir 19 minutes, ne 17:00 UTC
Prognozė galioja nuo 30 metu 18 UTC su 01 metu 24 UTC
Vėjas 3 kt iš Rytų/Pietryčių
Matomumas: 9000 m
Išsisklaidę debesys ne aukštis 2100 ft
Tikimybė 40% :
Laikinai
nuo 30 metu 20 UTC su 01 metu 00 UTC
Matomumas: 5000 m
Mažai debesys ne aukštis 1600 ft, Liūtiniai kamuoliniai debesys.
lietus

TAF: WAMM 301700Z 3018/0124 12003KT 9000 SCT021 PROB40 TEMPO 3020/0100 5000 RA FEW016CB

Orai ataskaitas ir orų prognozės (METAR, TAF).

turimą stotys yra geltonos ir raudonos taškus žemėlapyje.

Perkelti pele per norėdami pamatyti stoties vardą.

Tada spustelėkite, norėdami matyti oro stebėjimo ir prognozės.

Norėdami pakeisti žemėlapį: spustelėkite ant žalios mygtukų su juodo kryžiaus žemyn,; žalią mygtuką su brūkšneliu, jei norite nutolinti; arba žalių rodyklių gretimoms žemėlapius.


METAR-TAF: